sensor_id;sensor_type;location;lat;lon;timestamp;P1;durP1;ratioP1;P2;durP2;ratioP2
62006;SDS011;47963;53.008;6.754;2022-12-29T00:01:54;13.90;;;10.65;;
62006;SDS011;47963;53.008;6.754;2022-12-29T00:04:20;15.32;;;11.48;;
62006;SDS011;47963;53.008;6.754;2022-12-29T00:06:46;14.50;;;11.05;;
62006;SDS011;47963;53.008;6.754;2022-12-29T00:09:12;15.15;;;11.70;;
62006;SDS011;47963;53.008;6.754;2022-12-29T00:11:38;16.83;;;11.88;;
62006;SDS011;47963;53.008;6.754;2022-12-29T00:14:04;14.32;;;11.75;;
62006;SDS011;47963;53.008;6.754;2022-12-29T00:16:49;15.05;;;11.82;;
62006;SDS011;47963;53.008;6.754;2022-12-29T00:19:15;18.05;;;13.65;;
62006;SDS011;47963;53.008;6.754;2022-12-29T00:21:59;16.02;;;13.43;;
62006;SDS011;47963;53.008;6.754;2022-12-29T00:24:44;16.98;;;14.27;;
62006;SDS011;47963;53.008;6.754;2022-12-29T00:27:25;17.27;;;14.02;;
62006;SDS011;47963;53.008;6.754;2022-12-29T00:30:14;18.45;;;13.90;;
62006;SDS011;47963;53.008;6.754;2022-12-29T00:33:36;17.35;;;13.20;;
62006;SDS011;47963;53.008;6.754;2022-12-29T00:39:04;19.63;;;13.93;;
62006;SDS011;47963;53.008;6.754;2022-12-29T00:41:54;18.05;;;13.35;;
62006;SDS011;47963;53.008;6.754;2022-12-29T00:44:38;17.02;;;12.82;;
62006;SDS011;47963;53.008;6.754;2022-12-29T00:47:04;17.05;;;12.85;;
62006;SDS011;47963;53.008;6.754;2022-12-29T00:49:30;17.00;;;12.85;;
62006;SDS011;47963;53.008;6.754;2022-12-29T00:51:57;15.90;;;12.30;;
62006;SDS011;47963;53.008;6.754;2022-12-29T00:54:35;15.88;;;13.10;;
62006;SDS011;47963;53.008;6.754;2022-12-29T00:57:02;16.63;;;12.27;;
62006;SDS011;47963;53.008;6.754;2022-12-29T00:59:36;16.67;;;11.85;;
62006;SDS011;47963;53.008;6.754;2022-12-29T01:02:02;14.80;;;11.73;;
62006;SDS011;47963;53.008;6.754;2022-12-29T01:04:28;16.92;;;11.52;;
62006;SDS011;47963;53.008;6.754;2022-12-29T01:06:54;15.45;;;10.75;;
62006;SDS011;47963;53.008;6.754;2022-12-29T01:09:20;16.27;;;11.35;;
62006;SDS011;47963;53.008;6.754;2022-12-29T01:12:04;15.65;;;10.52;;
62006;SDS011;47963;53.008;6.754;2022-12-29T01:14:31;15.27;;;10.35;;
62006;SDS011;47963;53.008;6.754;2022-12-29T01:16:57;14.52;;;10.88;;
62006;SDS011;47963;53.008;6.754;2022-12-29T01:19:24;13.55;;;10.32;;
62006;SDS011;47963;53.008;6.754;2022-12-29T01:21:50;14.80;;;10.27;;
62006;SDS011;47963;53.008;6.754;2022-12-29T01:24:17;14.25;;;9.95;;
62006;SDS011;47963;53.008;6.754;2022-12-29T01:26:44;13.35;;;9.75;;
62006;SDS011;47963;53.008;6.754;2022-12-29T01:29:10;13.73;;;9.88;;
62006;SDS011;47963;53.008;6.754;2022-12-29T01:31:36;16.98;;;9.75;;
62006;SDS011;47963;53.008;6.754;2022-12-29T01:34:01;13.43;;;9.30;;
62006;SDS011;47963;53.008;6.754;2022-12-29T01:36:28;13.13;;;9.75;;
62006;SDS011;47963;53.008;6.754;2022-12-29T01:38:53;13.55;;;9.10;;
62006;SDS011;47963;53.008;6.754;2022-12-29T01:41:19;13.30;;;9.07;;
62006;SDS011;47963;53.008;6.754;2022-12-29T01:49:02;13.32;;;8.25;;
62006;SDS011;47963;53.008;6.754;2022-12-29T01:51:28;14.10;;;8.48;;
62006;SDS011;47963;53.008;6.754;2022-12-29T01:53:56;12.15;;;8.00;;
62006;SDS011;47963;53.008;6.754;2022-12-29T01:56:23;12.98;;;7.90;;
62006;SDS011;47963;53.008;6.754;2022-12-29T01:58:53;12.68;;;7.43;;
62006;SDS011;47963;53.008;6.754;2022-12-29T02:01:23;11.18;;;7.40;;
62006;SDS011;47963;53.008;6.754;2022-12-29T02:03:49;10.85;;;7.57;;
62006;SDS011;47963;53.008;6.754;2022-12-29T02:06:23;13.93;;;7.85;;
62006;SDS011;47963;53.008;6.754;2022-12-29T02:08:53;11.88;;;7.43;;
62006;SDS011;47963;53.008;6.754;2022-12-29T02:11:21;12.80;;;7.65;;
62006;SDS011;47963;53.008;6.754;2022-12-29T02:13:50;10.82;;;7.28;;
62006;SDS011;47963;53.008;6.754;2022-12-29T02:18:58;11.30;;;7.00;;
62006;SDS011;47963;53.008;6.754;2022-12-29T02:43:11;11.13;;;6.57;;
62006;SDS011;47963;53.008;6.754;2022-12-29T02:45:53;11.40;;;6.50;;
62006;SDS011;47963;53.008;6.754;2022-12-29T02:51:07;10.50;;;6.90;;
62006;SDS011;47963;53.008;6.754;2022-12-29T02:53:37;11.52;;;6.70;;
62006;SDS011;47963;53.008;6.754;2022-12-29T02:56:22;13.73;;;7.10;;
62006;SDS011;47963;53.008;6.754;2022-12-29T02:58:48;10.50;;;6.43;;
62006;SDS011;47963;53.008;6.754;2022-12-29T03:01:36;11.80;;;6.60;;
62006;SDS011;47963;53.008;6.754;2022-12-29T03:04:41;10.40;;;6.30;;
62006;SDS011;47963;53.008;6.754;2022-12-29T03:07:32;9.65;;;5.65;;
62006;SDS011;47963;53.008;6.754;2022-12-29T03:10:15;9.45;;;5.72;;
62006;SDS011;47963;53.008;6.754;2022-12-29T03:12:48;10.20;;;5.20;;
62006;SDS011;47963;53.008;6.754;2022-12-29T03:15:48;8.55;;;4.90;;
62006;SDS011;47963;53.008;6.754;2022-12-29T03:21:16;10.65;;;5.07;;
62006;SDS011;47963;53.008;6.754;2022-12-29T03:24:13;9.38;;;4.88;;
62006;SDS011;47963;53.008;6.754;2022-12-29T03:26:40;8.57;;;4.35;;
62006;SDS011;47963;53.008;6.754;2022-12-29T03:29:08;8.35;;;4.20;;
62006;SDS011;47963;53.008;6.754;2022-12-29T03:31:35;9.23;;;4.00;;
62006;SDS011;47963;53.008;6.754;2022-12-29T03:34:02;9.63;;;4.22;;
62006;SDS011;47963;53.008;6.754;2022-12-29T03:36:32;8.93;;;4.07;;
62006;SDS011;47963;53.008;6.754;2022-12-29T03:39:13;8.38;;;4.00;;
62006;SDS011;47963;53.008;6.754;2022-12-29T03:41:40;9.05;;;4.07;;
62006;SDS011;47963;53.008;6.754;2022-12-29T03:44:08;9.02;;;4.10;;
62006;SDS011;47963;53.008;6.754;2022-12-29T03:46:34;7.10;;;3.90;;
62006;SDS011;47963;53.008;6.754;2022-12-29T03:48:59;9.90;;;4.32;;
62006;SDS011;47963;53.008;6.754;2022-12-29T03:51:25;10.15;;;3.88;;
62006;SDS011;47963;53.008;6.754;2022-12-29T03:53:50;9.43;;;3.85;;
62006;SDS011;47963;53.008;6.754;2022-12-29T03:56:16;11.57;;;4.25;;
62006;SDS011;47963;53.008;6.754;2022-12-29T03:58:42;10.25;;;4.10;;
62006;SDS011;47963;53.008;6.754;2022-12-29T04:01:07;8.43;;;4.00;;
62006;SDS011;47963;53.008;6.754;2022-12-29T04:03:33;9.27;;;3.95;;
62006;SDS011;47963;53.008;6.754;2022-12-29T04:05:59;10.02;;;3.28;;
62006;SDS011;47963;53.008;6.754;2022-12-29T04:08:25;9.50;;;3.55;;
62006;SDS011;47963;53.008;6.754;2022-12-29T04:10:50;9.68;;;3.53;;
62006;SDS011;47963;53.008;6.754;2022-12-29T04:13:16;9.23;;;3.60;;
62006;SDS011;47963;53.008;6.754;2022-12-29T04:15:42;7.65;;;3.17;;
62006;SDS011;47963;53.008;6.754;2022-12-29T04:18:08;8.57;;;3.72;;
62006;SDS011;47963;53.008;6.754;2022-12-29T04:20:34;9.18;;;3.65;;
62006;SDS011;47963;53.008;6.754;2022-12-29T04:23:18;9.05;;;3.50;;
62006;SDS011;47963;53.008;6.754;2022-12-29T04:25:47;11.80;;;2.90;;
62006;SDS011;47963;53.008;6.754;2022-12-29T04:28:13;9.55;;;2.58;;
62006;SDS011;47963;53.008;6.754;2022-12-29T04:30:39;8.82;;;2.55;;
62006;SDS011;47963;53.008;6.754;2022-12-29T04:33:05;8.25;;;2.30;;
62006;SDS011;47963;53.008;6.754;2022-12-29T04:35:31;10.30;;;2.63;;
62006;SDS011;47963;53.008;6.754;2022-12-29T04:37:57;9.20;;;2.55;;
62006;SDS011;47963;53.008;6.754;2022-12-29T04:40:23;9.27;;;1.92;;
62006;SDS011;47963;53.008;6.754;2022-12-29T04:42:49;8.88;;;1.92;;
62006;SDS011;47963;53.008;6.754;2022-12-29T04:45:15;8.57;;;2.28;;
62006;SDS011;47963;53.008;6.754;2022-12-29T04:47:40;7.78;;;1.98;;
62006;SDS011;47963;53.008;6.754;2022-12-29T04:50:06;7.68;;;2.00;;
62006;SDS011;47963;53.008;6.754;2022-12-29T04:52:33;8.57;;;2.25;;
62006;SDS011;47963;53.008;6.754;2022-12-29T04:54:58;6.90;;;2.20;;
62006;SDS011;47963;53.008;6.754;2022-12-29T04:57:24;7.38;;;2.42;;
62006;SDS011;47963;53.008;6.754;2022-12-29T04:59:50;8.57;;;2.20;;
62006;SDS011;47963;53.008;6.754;2022-12-29T05:02:16;10.65;;;3.10;;
62006;SDS011;47963;53.008;6.754;2022-12-29T05:04:41;9.43;;;2.90;;
62006;SDS011;47963;53.008;6.754;2022-12-29T05:07:07;11.30;;;3.10;;
62006;SDS011;47963;53.008;6.754;2022-12-29T05:09:33;9.80;;;2.88;;
62006;SDS011;47963;53.008;6.754;2022-12-29T05:11:59;13.90;;;3.00;;
62006;SDS011;47963;53.008;6.754;2022-12-29T05:14:25;12.88;;;2.90;;
62006;SDS011;47963;53.008;6.754;2022-12-29T05:16:50;12.98;;;3.10;;
62006;SDS011;47963;53.008;6.754;2022-12-29T05:19:16;13.35;;;3.17;;
62006;SDS011;47963;53.008;6.754;2022-12-29T05:21:42;11.93;;;3.00;;
62006;SDS011;47963;53.008;6.754;2022-12-29T05:24:08;14.82;;;2.92;;
62006;SDS011;47963;53.008;6.754;2022-12-29T05:26:33;14.07;;;3.53;;
62006;SDS011;47963;53.008;6.754;2022-12-29T05:28:59;11.57;;;2.90;;
62006;SDS011;47963;53.008;6.754;2022-12-29T05:31:25;13.93;;;3.17;;
62006;SDS011;47963;53.008;6.754;2022-12-29T05:33:51;14.65;;;3.47;;
62006;SDS011;47963;53.008;6.754;2022-12-29T05:36:17;17.75;;;2.90;;
62006;SDS011;47963;53.008;6.754;2022-12-29T05:38:43;17.90;;;3.25;;
62006;SDS011;47963;53.008;6.754;2022-12-29T05:41:08;13.60;;;3.22;;
62006;SDS011;47963;53.008;6.754;2022-12-29T05:43:34;16.33;;;3.70;;
62006;SDS011;47963;53.008;6.754;2022-12-29T05:46:00;16.60;;;3.63;;
62006;SDS011;47963;53.008;6.754;2022-12-29T05:48:27;21.73;;;7.55;;
62006;SDS011;47963;53.008;6.754;2022-12-29T05:50:52;13.30;;;3.03;;
62006;SDS011;47963;53.008;6.754;2022-12-29T05:53:18;13.88;;;3.88;;
62006;SDS011;47963;53.008;6.754;2022-12-29T05:55:44;16.63;;;4.38;;
62006;SDS011;47963;53.008;6.754;2022-12-29T05:58:12;15.68;;;4.05;;
62006;SDS011;47963;53.008;6.754;2022-12-29T06:00:38;14.40;;;3.38;;
62006;SDS011;47963;53.008;6.754;2022-12-29T06:03:04;14.98;;;3.67;;
62006;SDS011;47963;53.008;6.754;2022-12-29T06:05:29;15.15;;;3.08;;
62006;SDS011;47963;53.008;6.754;2022-12-29T06:07:55;12.23;;;3.17;;
62006;SDS011;47963;53.008;6.754;2022-12-29T06:10:21;10.45;;;2.88;;
62006;SDS011;47963;53.008;6.754;2022-12-29T06:12:46;12.27;;;3.15;;
62006;SDS011;47963;53.008;6.754;2022-12-29T06:15:12;11.68;;;2.92;;
62006;SDS011;47963;53.008;6.754;2022-12-29T06:17:38;12.18;;;3.13;;
62006;SDS011;47963;53.008;6.754;2022-12-29T06:20:05;13.90;;;3.58;;
62006;SDS011;47963;53.008;6.754;2022-12-29T06:22:31;12.93;;;2.92;;
62006;SDS011;47963;53.008;6.754;2022-12-29T06:24:57;11.40;;;2.67;;
62006;SDS011;47963;53.008;6.754;2022-12-29T06:27:23;13.00;;;2.78;;
62006;SDS011;47963;53.008;6.754;2022-12-29T06:29:49;14.38;;;3.30;;
62006;SDS011;47963;53.008;6.754;2022-12-29T06:32:15;16.00;;;3.30;;
62006;SDS011;47963;53.008;6.754;2022-12-29T06:34:41;14.27;;;2.85;;
62006;SDS011;47963;53.008;6.754;2022-12-29T06:37:06;13.30;;;3.22;;
62006;SDS011;47963;53.008;6.754;2022-12-29T06:39:32;13.50;;;3.10;;
62006;SDS011;47963;53.008;6.754;2022-12-29T06:41:58;16.85;;;3.60;;
62006;SDS011;47963;53.008;6.754;2022-12-29T06:44:23;14.98;;;3.08;;
62006;SDS011;47963;53.008;6.754;2022-12-29T06:46:49;14.95;;;3.35;;
62006;SDS011;47963;53.008;6.754;2022-12-29T06:49:15;14.55;;;2.97;;
62006;SDS011;47963;53.008;6.754;2022-12-29T06:51:41;15.07;;;3.00;;
62006;SDS011;47963;53.008;6.754;2022-12-29T06:54:07;17.88;;;3.53;;
62006;SDS011;47963;53.008;6.754;2022-12-29T06:56:32;14.98;;;3.35;;
62006;SDS011;47963;53.008;6.754;2022-12-29T06:58:58;14.90;;;3.08;;
62006;SDS011;47963;53.008;6.754;2022-12-29T07:01:27;18.95;;;3.63;;
62006;SDS011;47963;53.008;6.754;2022-12-29T07:03:52;15.02;;;3.10;;
62006;SDS011;47963;53.008;6.754;2022-12-29T07:06:18;12.15;;;2.83;;
62006;SDS011;47963;53.008;6.754;2022-12-29T07:08:44;12.77;;;2.90;;
62006;SDS011;47963;53.008;6.754;2022-12-29T07:11:10;14.75;;;2.95;;
62006;SDS011;47963;53.008;6.754;2022-12-29T07:13:36;16.70;;;3.25;;
62006;SDS011;47963;53.008;6.754;2022-12-29T07:16:05;18.08;;;3.58;;
62006;SDS011;47963;53.008;6.754;2022-12-29T07:18:31;18.73;;;3.50;;
62006;SDS011;47963;53.008;6.754;2022-12-29T07:20:57;19.50;;;3.22;;
62006;SDS011;47963;53.008;6.754;2022-12-29T07:23:23;15.70;;;3.08;;
62006;SDS011;47963;53.008;6.754;2022-12-29T07:25:48;17.77;;;3.63;;
62006;SDS011;47963;53.008;6.754;2022-12-29T07:28:14;18.75;;;3.90;;
62006;SDS011;47963;53.008;6.754;2022-12-29T07:30:40;15.07;;;3.38;;
62006;SDS011;47963;53.008;6.754;2022-12-29T07:33:05;18.88;;;3.70;;
62006;SDS011;47963;53.008;6.754;2022-12-29T07:35:33;18.58;;;3.47;;
62006;SDS011;47963;53.008;6.754;2022-12-29T07:37:59;18.77;;;3.80;;
62006;SDS011;47963;53.008;6.754;2022-12-29T07:40:25;15.80;;;3.60;;
62006;SDS011;47963;53.008;6.754;2022-12-29T07:42:50;19.85;;;3.40;;
62006;SDS011;47963;53.008;6.754;2022-12-29T07:45:16;18.83;;;3.85;;
62006;SDS011;47963;53.008;6.754;2022-12-29T07:47:42;15.85;;;3.67;;
62006;SDS011;47963;53.008;6.754;2022-12-29T07:50:07;18.63;;;3.85;;
62006;SDS011;47963;53.008;6.754;2022-12-29T07:52:33;19.05;;;3.42;;
62006;SDS011;47963;53.008;6.754;2022-12-29T07:54:59;18.33;;;3.60;;
62006;SDS011;47963;53.008;6.754;2022-12-29T07:57:24;19.42;;;3.88;;
62006;SDS011;47963;53.008;6.754;2022-12-29T07:59:50;16.63;;;3.40;;
62006;SDS011;47963;53.008;6.754;2022-12-29T08:02:17;16.45;;;3.30;;
62006;SDS011;47963;53.008;6.754;2022-12-29T08:04:43;16.08;;;3.00;;
62006;SDS011;47963;53.008;6.754;2022-12-29T08:07:09;15.82;;;3.10;;
62006;SDS011;47963;53.008;6.754;2022-12-29T08:09:34;16.70;;;3.30;;
62006;SDS011;47963;53.008;6.754;2022-12-29T08:12:00;15.27;;;3.25;;
62006;SDS011;47963;53.008;6.754;2022-12-29T08:14:26;22.27;;;3.97;;
62006;SDS011;47963;53.008;6.754;2022-12-29T08:16:51;18.60;;;3.40;;
62006;SDS011;47963;53.008;6.754;2022-12-29T08:19:17;20.00;;;3.30;;
62006;SDS011;47963;53.008;6.754;2022-12-29T08:21:43;22.38;;;3.70;;
62006;SDS011;47963;53.008;6.754;2022-12-29T08:24:08;19.13;;;3.78;;
62006;SDS011;47963;53.008;6.754;2022-12-29T08:26:34;17.35;;;3.58;;
62006;SDS011;47963;53.008;6.754;2022-12-29T08:29:00;18.48;;;3.42;;
62006;SDS011;47963;53.008;6.754;2022-12-29T08:31:25;18.20;;;4.38;;
62006;SDS011;47963;53.008;6.754;2022-12-29T08:33:51;22.52;;;4.18;;
62006;SDS011;47963;53.008;6.754;2022-12-29T08:36:17;19.02;;;3.95;;
62006;SDS011;47963;53.008;6.754;2022-12-29T08:38:42;17.80;;;4.05;;
62006;SDS011;47963;53.008;6.754;2022-12-29T08:41:08;19.48;;;4.05;;
62006;SDS011;47963;53.008;6.754;2022-12-29T08:43:34;21.70;;;4.30;;
62006;SDS011;47963;53.008;6.754;2022-12-29T08:45:59;22.08;;;4.00;;
62006;SDS011;47963;53.008;6.754;2022-12-29T08:48:26;28.00;;;4.20;;
62006;SDS011;47963;53.008;6.754;2022-12-29T08:50:52;21.00;;;4.40;;
62006;SDS011;47963;53.008;6.754;2022-12-29T08:53:18;29.27;;;5.05;;
62006;SDS011;47963;53.008;6.754;2022-12-29T08:55:47;21.80;;;4.07;;
62006;SDS011;47963;53.008;6.754;2022-12-29T08:58:24;21.75;;;4.25;;
62006;SDS011;47963;53.008;6.754;2022-12-29T09:00:51;23.05;;;4.60;;
62006;SDS011;47963;53.008;6.754;2022-12-29T09:03:18;19.00;;;4.03;;
62006;SDS011;47963;53.008;6.754;2022-12-29T09:05:47;20.77;;;4.00;;
62006;SDS011;47963;53.008;6.754;2022-12-29T09:08:14;25.10;;;4.32;;
62006;SDS011;47963;53.008;6.754;2022-12-29T09:10:39;21.13;;;4.15;;
62006;SDS011;47963;53.008;6.754;2022-12-29T09:13:05;19.23;;;4.20;;
62006;SDS011;47963;53.008;6.754;2022-12-29T09:15:31;20.83;;;3.88;;
62006;SDS011;47963;53.008;6.754;2022-12-29T09:17:56;20.70;;;3.92;;
62006;SDS011;47963;53.008;6.754;2022-12-29T09:20:22;18.27;;;4.15;;
62006;SDS011;47963;53.008;6.754;2022-12-29T09:22:48;19.10;;;4.05;;
62006;SDS011;47963;53.008;6.754;2022-12-29T09:25:14;19.38;;;4.13;;
62006;SDS011;47963;53.008;6.754;2022-12-29T09:27:40;19.48;;;3.90;;
62006;SDS011;47963;53.008;6.754;2022-12-29T09:30:08;22.90;;;4.32;;
62006;SDS011;47963;53.008;6.754;2022-12-29T09:32:36;18.90;;;4.38;;
62006;SDS011;47963;53.008;6.754;2022-12-29T09:35:02;20.35;;;3.55;;
62006;SDS011;47963;53.008;6.754;2022-12-29T09:37:28;23.77;;;4.18;;
62006;SDS011;47963;53.008;6.754;2022-12-29T09:39:54;18.70;;;4.15;;
62006;SDS011;47963;53.008;6.754;2022-12-29T09:47:39;20.70;;;4.78;;
62006;SDS011;47963;53.008;6.754;2022-12-29T09:50:14;19.05;;;4.40;;
62006;SDS011;47963;53.008;6.754;2022-12-29T09:52:59;16.77;;;3.88;;
62006;SDS011;47963;53.008;6.754;2022-12-29T09:55:33;17.45;;;3.53;;
62006;SDS011;47963;53.008;6.754;2022-12-29T09:58:11;20.20;;;3.60;;
62006;SDS011;47963;53.008;6.754;2022-12-29T10:00:52;20.17;;;4.00;;
62006;SDS011;47963;53.008;6.754;2022-12-29T10:03:26;18.38;;;4.07;;
62006;SDS011;47963;53.008;6.754;2022-12-29T10:06:12;21.45;;;3.97;;
62006;SDS011;47963;53.008;6.754;2022-12-29T10:14:06;17.25;;;3.80;;
62006;SDS011;47963;53.008;6.754;2022-12-29T10:16:57;16.45;;;4.13;;
62006;SDS011;47963;53.008;6.754;2022-12-29T10:24:59;19.08;;;4.20;;
62006;SDS011;47963;53.008;6.754;2022-12-29T10:27:29;18.98;;;4.32;;
62006;SDS011;47963;53.008;6.754;2022-12-29T10:29:57;23.27;;;4.70;;
62006;SDS011;47963;53.008;6.754;2022-12-29T10:37:52;21.88;;;4.15;;
62006;SDS011;47963;53.008;6.754;2022-12-29T10:40:30;20.80;;;4.15;;
62006;SDS011;47963;53.008;6.754;2022-12-29T10:43:16;17.95;;;4.15;;
62006;SDS011;47963;53.008;6.754;2022-12-29T10:45:52;17.13;;;4.10;;
62006;SDS011;47963;53.008;6.754;2022-12-29T10:48:23;18.45;;;4.20;;
62006;SDS011;47963;53.008;6.754;2022-12-29T10:50:53;18.50;;;4.03;;
62006;SDS011;47963;53.008;6.754;2022-12-29T10:53:45;18.10;;;4.38;;
62006;SDS011;47963;53.008;6.754;2022-12-29T10:59:30;18.98;;;4.20;;
62006;SDS011;47963;53.008;6.754;2022-12-29T11:07:08;17.25;;;3.90;;
62006;SDS011;47963;53.008;6.754;2022-12-29T11:09:36;17.42;;;4.45;;
62006;SDS011;47963;53.008;6.754;2022-12-29T11:12:22;17.05;;;4.05;;
62006;SDS011;47963;53.008;6.754;2022-12-29T11:15:13;16.38;;;3.58;;
62006;SDS011;47963;53.008;6.754;2022-12-29T11:17:51;20.23;;;4.05;;
62006;SDS011;47963;53.008;6.754;2022-12-29T11:20:37;20.80;;;4.43;;
62006;SDS011;47963;53.008;6.754;2022-12-29T11:25:41;18.38;;;3.90;;
62006;SDS011;47963;53.008;6.754;2022-12-29T11:28:16;18.52;;;4.32;;
62006;SDS011;47963;53.008;6.754;2022-12-29T11:30:42;15.63;;;3.33;;
62006;SDS011;47963;53.008;6.754;2022-12-29T11:33:08;18.50;;;3.67;;
62006;SDS011;47963;53.008;6.754;2022-12-29T11:35:42;17.02;;;3.38;;
62006;SDS011;47963;53.008;6.754;2022-12-29T11:38:22;19.08;;;4.10;;
62006;SDS011;47963;53.008;6.754;2022-12-29T11:40:53;16.90;;;3.88;;
62006;SDS011;47963;53.008;6.754;2022-12-29T11:43:38;17.80;;;3.33;;
62006;SDS011;47963;53.008;6.754;2022-12-29T11:46:07;18.27;;;3.22;;
62006;SDS011;47963;53.008;6.754;2022-12-29T11:48:47;19.45;;;4.18;;
62006;SDS011;47963;53.008;6.754;2022-12-29T11:51:21;17.70;;;3.60;;
62006;SDS011;47963;53.008;6.754;2022-12-29T11:53:53;21.38;;;4.10;;
62006;SDS011;47963;53.008;6.754;2022-12-29T11:56:43;25.27;;;5.40;;
62006;SDS011;47963;53.008;6.754;2022-12-29T12:01:52;24.00;;;5.10;;
62006;SDS011;47963;53.008;6.754;2022-12-29T12:04:20;24.05;;;5.35;;
62006;SDS011;47963;53.008;6.754;2022-12-29T12:12:11;27.67;;;5.73;;
62006;SDS011;47963;53.008;6.754;2022-12-29T12:14:58;31.17;;;5.95;;
62006;SDS011;47963;53.008;6.754;2022-12-29T12:18:10;34.55;;;5.78;;
62006;SDS011;47963;53.008;6.754;2022-12-29T12:20:21;31.55;;;6.78;;
62006;SDS011;47963;53.008;6.754;2022-12-29T12:23:06;29.60;;;5.35;;
62006;SDS011;47963;53.008;6.754;2022-12-29T12:25:59;35.20;;;6.40;;
62006;SDS011;47963;53.008;6.754;2022-12-29T12:34:13;30.17;;;6.22;;
62006;SDS011;47963;53.008;6.754;2022-12-29T12:44:41;27.00;;;5.68;;
62006;SDS011;47963;53.008;6.754;2022-12-29T12:55:13;23.38;;;5.05;;
62006;SDS011;47963;53.008;6.754;2022-12-29T12:57:49;24.60;;;4.93;;
62006;SDS011;47963;53.008;6.754;2022-12-29T13:00:21;24.67;;;4.80;;
62006;SDS011;47963;53.008;6.754;2022-12-29T13:16:01;29.05;;;5.45;;
62006;SDS011;47963;53.008;6.754;2022-12-29T13:18:59;27.05;;;4.55;;
62006;SDS011;47963;53.008;6.754;2022-12-29T13:21:34;26.92;;;4.43;;
62006;SDS011;47963;53.008;6.754;2022-12-29T13:27:05;25.60;;;5.18;;
62006;SDS011;47963;53.008;6.754;2022-12-29T13:29:41;33.08;;;5.35;;
62006;SDS011;47963;53.008;6.754;2022-12-29T13:38:10;28.05;;;5.47;;
62006;SDS011;47963;53.008;6.754;2022-12-29T13:40:44;30.92;;;6.15;;
62006;SDS011;47963;53.008;6.754;2022-12-29T13:43:14;21.95;;;4.68;;
62006;SDS011;47963;53.008;6.754;2022-12-29T13:45:41;20.90;;;4.20;;
62006;SDS011;47963;53.008;6.754;2022-12-29T13:48:20;24.85;;;4.47;;
62006;SDS011;47963;53.008;6.754;2022-12-29T13:50:53;24.55;;;4.60;;
62006;SDS011;47963;53.008;6.754;2022-12-29T13:56:12;20.80;;;4.05;;
62006;SDS011;47963;53.008;6.754;2022-12-29T13:59:04;21.23;;;3.65;;
62006;SDS011;47963;53.008;6.754;2022-12-29T14:01:43;22.40;;;4.45;;
62006;SDS011;47963;53.008;6.754;2022-12-29T14:04:25;22.85;;;4.25;;
62006;SDS011;47963;53.008;6.754;2022-12-29T14:06:59;24.85;;;4.93;;
62006;SDS011;47963;53.008;6.754;2022-12-29T14:09:40;23.55;;;5.28;;
62006;SDS011;47963;53.008;6.754;2022-12-29T14:15:06;24.90;;;5.22;;
62006;SDS011;47963;53.008;6.754;2022-12-29T14:17:44;25.40;;;4.82;;
62006;SDS011;47963;53.008;6.754;2022-12-29T14:20:24;24.05;;;4.63;;
62006;SDS011;47963;53.008;6.754;2022-12-29T14:22:57;24.10;;;4.30;;
62006;SDS011;47963;53.008;6.754;2022-12-29T14:28:26;25.50;;;4.75;;
62006;SDS011;47963;53.008;6.754;2022-12-29T14:30:57;23.48;;;4.43;;
62006;SDS011;47963;53.008;6.754;2022-12-29T14:33:25;25.63;;;5.07;;
62006;SDS011;47963;53.008;6.754;2022-12-29T14:35:53;22.38;;;4.40;;
62006;SDS011;47963;53.008;6.754;2022-12-29T14:38:29;19.67;;;3.90;;
62006;SDS011;47963;53.008;6.754;2022-12-29T14:41:15;19.42;;;3.80;;
62006;SDS011;47963;53.008;6.754;2022-12-29T14:43:51;16.17;;;4.10;;
62006;SDS011;47963;53.008;6.754;2022-12-29T14:46:19;24.00;;;4.60;;
62006;SDS011;47963;53.008;6.754;2022-12-29T14:48:45;17.83;;;3.58;;
62006;SDS011;47963;53.008;6.754;2022-12-29T14:51:20;18.98;;;4.13;;
62006;SDS011;47963;53.008;6.754;2022-12-29T14:57:02;18.40;;;4.07;;
62006;SDS011;47963;53.008;6.754;2022-12-29T14:59:29;20.02;;;4.55;;
62006;SDS011;47963;53.008;6.754;2022-12-29T15:01:57;22.15;;;5.25;;
62006;SDS011;47963;53.008;6.754;2022-12-29T15:04:33;18.75;;;3.80;;
62006;SDS011;47963;53.008;6.754;2022-12-29T15:07:00;19.50;;;3.35;;
62006;SDS011;47963;53.008;6.754;2022-12-29T15:09:35;20.23;;;4.33;;
62006;SDS011;47963;53.008;6.754;2022-12-29T15:14:49;19.20;;;3.53;;
62006;SDS011;47963;53.008;6.754;2022-12-29T15:17:27;17.83;;;3.58;;
62006;SDS011;47963;53.008;6.754;2022-12-29T15:19:55;19.80;;;3.67;;
62006;SDS011;47963;53.008;6.754;2022-12-29T15:22:22;16.83;;;5.03;;
62006;SDS011;47963;53.008;6.754;2022-12-29T15:24:49;18.85;;;4.35;;
62006;SDS011;47963;53.008;6.754;2022-12-29T15:27:20;16.05;;;3.90;;
62006;SDS011;47963;53.008;6.754;2022-12-29T15:29:57;19.08;;;3.85;;
62006;SDS011;47963;53.008;6.754;2022-12-29T15:32:27;19.30;;;4.43;;
62006;SDS011;47963;53.008;6.754;2022-12-29T15:34:54;17.08;;;3.78;;
62006;SDS011;47963;53.008;6.754;2022-12-29T15:37:26;15.98;;;3.30;;
62006;SDS011;47963;53.008;6.754;2022-12-29T15:39:54;13.33;;;3.70;;
62006;SDS011;47963;53.008;6.754;2022-12-29T15:42:30;22.38;;;3.83;;
62006;SDS011;47963;53.008;6.754;2022-12-29T15:44:57;15.30;;;3.40;;
62006;SDS011;47963;53.008;6.754;2022-12-29T15:47:24;16.67;;;3.53;;
62006;SDS011;47963;53.008;6.754;2022-12-29T15:50:01;19.92;;;3.88;;
62006;SDS011;47963;53.008;6.754;2022-12-29T15:52:30;17.88;;;3.63;;
62006;SDS011;47963;53.008;6.754;2022-12-29T15:54:57;20.95;;;4.05;;
62006;SDS011;47963;53.008;6.754;2022-12-29T15:57:25;17.75;;;3.78;;
62006;SDS011;47963;53.008;6.754;2022-12-29T15:59:53;17.35;;;3.92;;
62006;SDS011;47963;53.008;6.754;2022-12-29T16:02:23;17.80;;;3.72;;
62006;SDS011;47963;53.008;6.754;2022-12-29T16:04:49;18.90;;;3.90;;
62006;SDS011;47963;53.008;6.754;2022-12-29T16:08:20;17.63;;;3.60;;
62006;SDS011;47963;53.008;6.754;2022-12-29T16:10:37;23.58;;;4.10;;
62006;SDS011;47963;53.008;6.754;2022-12-29T16:13:19;17.75;;;3.70;;
62006;SDS011;47963;53.008;6.754;2022-12-29T16:16:06;18.52;;;4.13;;
62006;SDS011;47963;53.008;6.754;2022-12-29T16:18:38;19.15;;;4.03;;
62006;SDS011;47963;53.008;6.754;2022-12-29T16:21:05;20.75;;;3.80;;
62006;SDS011;47963;53.008;6.754;2022-12-29T16:23:39;20.17;;;4.80;;
62006;SDS011;47963;53.008;6.754;2022-12-29T16:26:10;22.45;;;4.30;;
62006;SDS011;47963;53.008;6.754;2022-12-29T16:28:41;20.23;;;4.38;;
62006;SDS011;47963;53.008;6.754;2022-12-29T16:31:53;23.23;;;4.50;;
62006;SDS011;47963;53.008;6.754;2022-12-29T16:33:55;18.17;;;4.05;;
62006;SDS011;47963;53.008;6.754;2022-12-29T16:36:34;21.10;;;4.75;;
62006;SDS011;47963;53.008;6.754;2022-12-29T16:39:18;17.80;;;4.72;;
62006;SDS011;47963;53.008;6.754;2022-12-29T16:47:47;19.50;;;5.20;;
62006;SDS011;47963;53.008;6.754;2022-12-29T16:50:34;18.88;;;4.78;;
62006;SDS011;47963;53.008;6.754;2022-12-29T16:53:02;18.65;;;4.85;;
62006;SDS011;47963;53.008;6.754;2022-12-29T16:55:30;18.92;;;5.03;;
62006;SDS011;47963;53.008;6.754;2022-12-29T16:57:56;11.45;;;3.17;;
62006;SDS011;47963;53.008;6.754;2022-12-29T17:00:24;10.25;;;2.33;;
62006;SDS011;47963;53.008;6.754;2022-12-29T17:02:59;8.75;;;1.98;;
62006;SDS011;47963;53.008;6.754;2022-12-29T17:05:26;8.30;;;2.45;;
62006;SDS011;47963;53.008;6.754;2022-12-29T17:07:52;9.00;;;2.20;;
62006;SDS011;47963;53.008;6.754;2022-12-29T17:10:18;9.93;;;1.90;;
62006;SDS011;47963;53.008;6.754;2022-12-29T17:12:44;6.82;;;1.63;;
62006;SDS011;47963;53.008;6.754;2022-12-29T17:15:18;6.00;;;1.40;;
62006;SDS011;47963;53.008;6.754;2022-12-29T17:17:49;6.53;;;1.60;;
62006;SDS011;47963;53.008;6.754;2022-12-29T17:20:28;7.03;;;1.40;;